Time;durP1;ratioP1;P1;durP2;ratioP2;P2;SDS_P1;SDS_P2;PMS_P1;PMS_P2;Temp;Humidity;BMP_temperature;BMP_pressure;BME280_temperature;BME280_humidity;BME280_pressure;Samples;Min_cycle;Max_cycle;Signal;HPM_P1;HPM_P2
2023/12/15 00:01:15;;;;;;;31.00;18.42;;;5.90;99.90;;;6.16;77.10;101677.09;5059654;28;20533;-83
2023/12/15 00:03:44;;;;;;;35.83;19.80;;;5.90;99.90;;;6.17;76.73;101681.41;5061160;28;20057;-83
2023/12/15 00:06:12;;;;;;;32.22;17.80;;;5.90;99.90;;;6.15;77.10;101685.22;5063047;28;20052;-83
2023/12/15 00:08:41;;;;;;;29.92;17.88;;;5.90;99.90;;;6.14;77.26;101681.69;5063183;28;20478;-84
2023/12/15 00:11:08;;;;;;;33.85;18.60;;;5.90;99.90;;;6.15;77.25;101674.59;5060891;28;20045;-83
2023/12/15 00:13:36;;;;;;;33.38;18.55;;;5.90;99.90;;;6.21;77.34;101673.16;5063325;28;20076;-83
2023/12/15 00:16:05;;;;;;;31.45;18.13;;;5.90;99.90;;;6.20;77.70;101677.63;5062860;28;20048;-83
2023/12/15 00:18:33;;;;;;;34.35;19.17;;;5.90;99.90;;;6.14;77.13;101675.56;5077142;28;20053;-83
2023/12/15 00:21:02;;;;;;;31.13;18.20;;;5.90;99.90;;;6.14;77.92;101689.63;5062316;28;20053;-83
2023/12/15 00:23:29;;;;;;;34.33;18.77;;;5.90;99.90;;;6.06;77.86;101686.13;5060900;28;20041;-83
2023/12/15 00:25:57;;;;;;;36.08;18.52;;;5.80;99.90;;;6.07;78.79;101685.94;5061360;28;20036;-83
2023/12/15 00:28:24;;;;;;;33.08;17.70;;;5.80;99.90;;;6.08;79.00;101700.03;5060913;28;20052;-83
2023/12/15 00:30:52;;;;;;;33.90;17.70;;;5.80;99.90;;;6.13;79.26;101698.56;5044006;28;20551;-84
2023/12/15 00:33:19;;;;;;;31.23;18.10;;;5.90;99.90;;;6.18;79.13;101696.31;5085379;28;20056;-83
2023/12/15 00:35:48;;;;;;;34.42;19.05;;;5.90;99.90;;;6.14;78.78;101702.06;5043841;28;20075;-83
2023/12/15 00:38:17;;;;;;;32.92;18.73;;;5.90;99.90;;;6.18;79.11;101712.19;5069337;28;20408;-83
2023/12/15 00:40:45;;;;;;;34.08;17.55;;;6.00;99.90;;;6.20;78.88;101709.41;5044218;28;21120;-83
2023/12/15 00:43:14;;;;;;;31.58;17.88;;;6.00;99.90;;;6.25;79.02;101716.91;5061986;28;20044;-83
2023/12/15 00:45:42;;;;;;;32.20;17.63;;;6.00;99.90;;;6.15;79.07;101716.97;5094147;28;20103;-83
2023/12/15 00:48:10;;;;;;;33.45;18.50;;;6.00;99.90;;;6.15;79.55;101717.81;5062103;28;20048;-83
2023/12/15 00:50:37;;;;;;;37.42;19.02;;;6.00;99.90;;;6.23;79.61;101718.84;5062036;28;20040;-83
2023/12/15 00:53:05;;;;;;;36.40;18.90;;;6.00;99.90;;;6.27;79.32;101721.06;5060747;28;20057;-83
2023/12/15 00:55:34;;;;;;;30.90;17.38;;;6.30;99.90;;;6.30;79.02;101717.28;5061418;28;20131;-83
2023/12/15 00:58:01;;;;;;;31.13;17.27;;;6.10;99.90;;;6.33;79.12;101735.50;5063877;28;20045;-83
2023/12/15 01:00:29;;;;;;;35.47;17.48;;;6.10;99.90;;;6.36;79.09;101735.22;5066601;28;20132;-83
2023/12/15 01:02:56;;;;;;;33.78;18.15;;;6.10;99.90;;;6.37;79.14;101734.22;5065455;28;20040;-83
2023/12/15 01:05:24;;;;;;;34.03;18.25;;;6.10;99.90;;;6.40;79.00;101728.63;5063652;28;20103;-83
2023/12/15 01:07:52;;;;;;;32.90;18.00;;;6.20;99.90;;;6.41;79.02;101730.28;5065312;28;20448;-83
2023/12/15 01:10:19;;;;;;;32.53;16.88;;;6.20;99.90;;;6.42;78.95;101735.44;5064148;28;20103;-83
2023/12/15 01:12:48;;;;;;;32.70;17.85;;;6.20;99.90;;;6.42;79.01;101742.53;5065298;28;21071;-85
2023/12/15 01:15:16;;;;;;;31.70;17.90;;;6.20;99.90;;;6.44;78.95;101751.16;5064527;28;20071;-83
2023/12/15 01:17:47;;;;;;;31.05;17.40;;;6.20;99.90;;;6.47;79.15;101752.69;5063800;28;20040;-83
2023/12/15 01:20:16;;;;;;;;;;;6.20;99.90;;;6.48;79.14;101755.19;5072308;28;20050;-84
2023/12/15 01:22:44;;;;;;;32.92;17.13;;;6.30;99.90;;;6.45;79.25;101751.03;5080853;28;19964;-83
2023/12/15 01:25:11;;;;;;;34.95;18.63;;;6.20;99.90;;;6.45;79.12;101744.91;5063374;28;20508;-83
2023/12/15 01:27:39;;;;;;;35.83;18.15;;;6.20;99.90;;;6.38;79.68;101744.66;5064759;28;20044;-83
2023/12/15 01:30:10;;;;;;;33.60;18.67;;;6.20;99.90;;;6.42;79.62;101753.97;5064977;28;20071;-83
2023/12/15 01:32:38;;;;;;;35.55;17.70;;;6.20;99.90;;;6.46;79.81;101759.81;5064170;28;20056;-84
2023/12/15 01:35:07;;;;;;;30.77;17.20;;;6.20;99.90;;;6.43;79.56;101768.06;5063169;28;20071;-83
2023/12/15 01:37:35;;;;;;;30.20;17.05;;;6.20;99.90;;;6.45;79.93;101766.94;5063948;28;20463;-83
2023/12/15 01:40:03;;;;;;;31.73;16.13;;;6.20;99.90;;;6.49;79.92;101770.13;5064981;28;20044;-82
2023/12/15 01:42:30;;;;;;;31.92;17.27;;;6.30;99.90;;;6.52;79.83;101766.31;5063823;28;20135;-83
2023/12/15 01:44:58;;;;;;;31.42;17.42;;;6.30;99.90;;;6.52;79.94;101756.53;5046118;28;20041;-84
2023/12/15 01:47:28;;;;;;;29.85;16.48;;;6.30;99.90;;;6.54;80.39;101754.59;5066016;28;20052;-84
2023/12/15 01:49:55;;;;;;;29.88;16.48;;;6.30;99.90;;;6.55;79.99;101771.31;5063576;28;20060;-83
2023/12/15 01:52:23;;;;;;;31.05;16.17;;;6.30;99.90;;;6.56;80.16;101767.69;5063503;28;20087;-83
2023/12/15 01:54:50;;;;;;;36.92;18.10;;;6.30;99.90;;;6.53;80.10;101770.63;5064677;28;20063;-83
2023/12/15 01:57:18;;;;;;;31.48;16.67;;;6.30;99.90;;;6.51;80.34;101776.09;5063332;28;20055;-83
2023/12/15 01:59:47;;;;;;;33.50;16.92;;;6.40;99.90;;;6.55;80.53;101782.75;5062734;28;20084;-83
2023/12/15 02:02:14;;;;;;;28.27;16.63;;;6.30;99.90;;;6.53;80.43;101783.88;5088226;28;20920;-83
2023/12/15 02:04:43;;;;;;;29.58;16.58;;;6.30;99.90;;;6.56;80.58;101792.38;5064006;28;20052;-83
2023/12/15 02:07:10;;;;;;;29.85;16.42;;;6.40;99.90;;;6.59;80.50;101800.03;5062088;28;20500;-83
2023/12/15 02:09:39;;;;;;;30.42;17.15;;;6.40;99.90;;;6.61;80.71;101799.84;5063334;28;20044;-83
2023/12/15 02:12:08;;;;;;;27.20;15.85;;;6.40;99.90;;;6.62;80.73;101806.81;5070476;28;20144;-83
2023/12/15 02:14:35;;;;;;;27.23;15.75;;;6.40;99.90;;;6.60;80.83;101804.34;5044871;28;20070;-83
2023/12/15 02:17:03;;;;;;;33.70;16.10;;;6.40;99.90;;;6.62;81.01;101801.53;5064997;28;20044;-83
2023/12/15 02:19:30;;;;;;;29.05;15.93;;;6.40;99.90;;;6.65;81.02;101809.19;5063734;28;20230;-84
2023/12/15 02:21:59;;;;;;;30.23;15.95;;;6.40;99.90;;;6.63;80.69;101805.81;5047456;28;20140;-83
2023/12/15 02:24:28;;;;;;;32.30;17.48;;;6.40;99.90;;;6.64;80.98;101797.75;5046092;28;20473;-83
2023/12/15 02:26:56;;;;;;;33.95;17.15;;;6.40;99.90;;;6.65;80.97;101801.22;5062341;28;20106;-83
2023/12/15 02:29:26;;;;;;;29.73;15.98;;;6.50;99.90;;;6.63;80.96;101806.66;5066276;28;20466;-83
2023/12/15 02:31:54;;;;;;;31.35;15.75;;;6.50;99.90;;;6.64;80.88;101800.41;5064033;28;20076;-83
2023/12/15 02:34:21;;;;;;;36.97;17.30;;;6.50;99.90;;;6.63;81.22;101804.00;5064154;28;20048;-83
2023/12/15 02:36:49;;;;;;;33.50;17.75;;;6.50;99.90;;;6.55;81.36;101800.47;5064765;28;20044;-84
2023/12/15 02:39:17;;;;;;;33.85;16.73;;;6.50;99.90;;;6.59;81.40;101802.66;5028124;28;20075;-83
2023/12/15 02:41:47;;;;;;;29.90;16.73;;;6.50;99.90;;;6.63;81.39;101801.34;5062699;28;20062;-83
2023/12/15 02:44:14;;;;;;;32.28;16.67;;;6.50;99.90;;;6.64;81.32;101799.56;5064668;28;20499;-83
2023/12/15 02:46:41;;;;;;;34.70;18.17;;;6.70;99.90;;;6.59;81.60;101797.38;5062468;28;20051;-83
2023/12/15 02:49:10;;;;;;;29.90;17.35;;;6.50;99.90;;;6.59;81.78;101794.72;5064041;28;20049;-83
2023/12/15 02:51:37;;;;;;;35.75;17.65;;;6.40;99.90;;;6.56;81.95;101794.19;5064344;28;20542;-83
2023/12/15 02:54:05;;;;;;;42.10;20.77;;;6.50;99.90;;;6.57;81.82;101791.38;5045619;28;20734;-84
2023/12/15 02:56:33;;;;;;;34.30;18.40;;;6.50;99.90;;;6.56;82.25;101791.53;5062264;28;20975;-84
2023/12/15 02:59:03;;;;;;;31.02;18.05;;;6.50;99.90;;;6.57;82.23;101796.66;5063254;28;20044;-83
2023/12/15 03:01:30;;;;;;;34.13;18.80;;;6.50;99.90;;;6.59;82.04;101794.72;5064249;28;20068;-83
2023/12/15 03:03:58;;;;;;;34.53;17.35;;;6.50;99.90;;;6.56;82.04;101795.00;5053597;28;20503;-83
2023/12/15 03:06:25;;;;;;;32.78;18.48;;;6.50;99.90;;;6.59;82.11;101794.72;5044564;28;20135;-83
2023/12/15 03:08:53;;;;;;;30.15;16.88;;;6.50;99.90;;;6.62;82.23;101794.41;5061643;28;20129;-83
2023/12/15 03:11:20;;;;;;;33.78;18.90;;;6.50;99.90;;;6.56;82.45;101797.66;5063137;28;20036;-83
2023/12/15 03:13:47;;;;;;;34.33;18.67;;;6.50;99.90;;;6.60;82.55;101809.63;5061522;28;20044;-83
2023/12/15 03:16:16;;;;;;;32.33;18.08;;;6.50;99.90;;;6.62;82.75;101810.31;5063179;28;20045;-83
2023/12/15 03:18:44;;;;;;;34.95;18.27;;;6.50;99.90;;;6.64;82.61;101816.31;5061171;28;20123;-84
2023/12/15 03:21:11;;;;;;;33.42;17.33;;;6.50;99.90;;;6.60;82.91;101817.59;5063800;28;20041;-83
2023/12/15 03:23:38;;;;;;;32.00;18.42;;;6.50;99.90;;;6.64;82.77;101818.13;5060733;28;20044;-83
2023/12/15 03:26:06;;;;;;;36.22;18.25;;;6.50;99.90;;;6.54;82.76;101826.16;5061719;28;20053;-83
2023/12/15 03:28:34;;;;;;;34.42;17.48;;;6.50;99.90;;;6.57;83.40;101840.91;5062172;28;20044;-83
2023/12/15 03:31:01;;;;;;;30.63;17.98;;;6.40;99.90;;;6.63;83.24;101849.06;5062807;28;20048;-83
2023/12/15 03:33:35;;;;;;;31.60;18.35;;;6.50;99.90;;;6.67;83.21;101850.44;5069487;28;20049;-83
2023/12/15 03:36:03;;;;;;;34.50;17.73;;;6.60;99.90;;;6.69;83.26;101853.78;5062596;28;20051;-82
2023/12/15 03:38:30;;;;;;;35.78;18.50;;;6.60;99.90;;;6.65;83.30;101854.25;5068994;28;20095;-83
2023/12/15 03:40:58;;;;;;;35.20;19.00;;;6.50;99.90;;;6.64;83.44;101857.88;5061390;28;20041;-83
2023/12/15 03:43:25;;;;;;;38.92;19.60;;;6.60;99.90;;;6.61;83.80;101864.31;5060756;28;20090;-83
2023/12/15 03:45:52;;;;;;;30.80;17.58;;;6.60;99.90;;;6.65;84.19;101864.84;5063194;28;20163;-83
2023/12/15 03:48:20;;;;;;;40.20;19.65;;;6.60;99.90;;;6.61;84.11;101866.94;5062959;28;20079;-84
2023/12/15 03:50:49;;;;;;;37.90;19.17;;;6.60;99.90;;;6.62;84.42;101868.63;5063811;28;20205;-83
2023/12/15 03:53:16;;;;;;;36.40;18.92;;;6.60;99.90;;;6.66;84.32;101867.34;5061197;28;20061;-83
2023/12/15 03:55:44;;;;;;;39.78;20.20;;;6.60;99.90;;;6.70;84.12;101867.88;5061002;28;20044;-83
2023/12/15 03:58:11;;;;;;;34.25;18.90;;;6.60;99.90;;;6.71;84.14;101867.72;5063302;28;20045;-83
2023/12/15 04:00:39;;;;;;;39.03;20.23;;;6.60;99.90;;;6.70;84.21;101875.81;5060419;28;20397;-83
2023/12/15 04:03:06;;;;;;;37.88;18.83;;;6.60;99.90;;;6.67;84.56;101887.56;5062532;28;20052;-84
2023/12/15 04:05:34;;;;;;;41.72;21.83;;;6.60;99.90;;;6.67;84.72;101889.38;5060893;28;20102;-83
2023/12/15 04:08:03;;;;;;;40.58;20.17;;;6.60;99.90;;;6.67;85.03;101894.69;5051871;28;20127;-83
2023/12/15 04:10:31;;;;;;;43.05;20.77;;;6.60;99.90;;;6.70;84.86;101881.97;5044108;28;20048;-83
2023/12/15 04:12:58;;;;;;;44.97;21.75;;;6.70;99.90;;;6.62;85.29;101881.03;5044311;28;20405;-83
2023/12/15 04:15:26;;;;;;;37.60;20.30;;;6.60;99.90;;;6.60;85.79;101886.50;5068786;28;20077;-83
2023/12/15 04:17:53;;;;;;;40.17;20.85;;;6.60;99.90;;;6.57;85.64;101885.97;5060892;28;20041;-83
2023/12/15 04:20:21;;;;;;;37.90;20.13;;;6.60;99.90;;;6.58;86.14;101899.06;5062259;28;20045;-83
2023/12/15 04:22:48;;;;;;;38.75;21.15;;;6.60;99.90;;;6.58;86.51;101904.34;5069336;28;20049;-83
2023/12/15 04:25:17;;;;;;;32.85;19.05;;;6.70;99.90;;;6.65;86.16;101904.59;5060920;28;20071;-83
2023/12/15 04:27:45;;;;;;;38.88;21.05;;;6.60;99.90;;;6.68;86.33;101917.53;5063299;28;20067;-83
2023/12/15 04:30:14;;;;;;;44.10;20.83;;;6.60;99.90;;;6.67;86.11;101918.53;5026564;28;20172;-83
2023/12/15 04:32:42;;;;;;;37.92;20.20;;;6.70;99.90;;;6.71;86.22;101920.75;5063629;28;20571;-83
2023/12/15 04:35:10;;;;;;;38.50;20.20;;;6.60;99.90;;;6.75;86.07;101923.09;5055540;28;20559;-84
2023/12/15 04:37:37;;;;;;;36.05;20.02;;;6.70;99.90;;;6.80;85.97;101920.84;5064439;28;20109;-83
2023/12/15 04:40:06;;;;;;;42.25;21.83;;;6.70;99.90;;;6.84;85.77;101915.06;5065772;28;20052;-83
2023/12/15 04:42:35;;;;;;;41.35;20.98;;;6.70;99.90;;;6.88;85.52;101912.94;5046459;28;20045;-83
2023/12/15 04:45:03;;;;;;;40.15;21.88;;;6.80;99.90;;;6.90;85.53;101918.94;5065379;28;20496;-83
2023/12/15 04:47:30;;;;;;;39.65;22.05;;;6.80;99.90;;;6.88;85.42;101918.25;5065038;28;20990;-83
2023/12/15 04:49:58;;;;;;;35.35;21.00;;;6.80;99.90;;;6.88;85.47;101912.94;5064394;28;20535;-83
2023/12/15 04:52:25;;;;;;;41.67;22.13;;;6.80;99.90;;;6.85;85.48;101910.59;5047299;28;20056;-83
2023/12/15 04:54:52;;;;;;;40.67;21.80;;;6.80;99.90;;;6.80;85.85;101908.41;5070771;28;20128;-83
2023/12/15 04:57:20;;;;;;;43.17;21.98;;;6.80;99.90;;;6.82;85.82;101916.19;5061850;28;20146;-83
2023/12/15 04:59:49;;;;;;;36.28;20.25;;;6.80;99.90;;;6.85;86.18;101921.22;5063684;28;20051;-83
2023/12/15 05:02:16;;;;;;;37.05;20.20;;;6.80;99.90;;;6.88;85.78;101924.41;5087769;28;20531;-83
2023/12/15 05:04:44;;;;;;;41.92;20.55;;;6.80;99.90;;;6.88;86.01;101942.09;5070245;28;20045;-83
2023/12/15 05:07:11;;;;;;;38.10;18.75;;;6.80;99.90;;;6.93;86.02;101934.56;5064641;28;20049;-83
2023/12/15 05:09:39;;;;;;;34.80;19.52;;;6.80;99.90;;;6.97;85.74;101942.03;5064462;28;20037;-83
2023/12/15 05:12:08;;;;;;;39.72;21.15;;;6.90;99.90;;;7.00;85.62;101945.38;5062344;28;20095;-83
2023/12/15 05:14:36;;;;;;;38.88;21.38;;;6.90;99.90;;;7.00;85.41;101953.34;5062557;28;20462;-83
2023/12/15 05:17:05;;;;;;;35.95;19.45;;;6.90;99.90;;;6.95;85.50;101936.06;5063525;28;20127;-83
2023/12/15 05:19:33;;;;;;;40.90;20.70;;;6.90;99.90;;;6.90;85.75;101940.16;5095978;28;20063;-83
2023/12/15 05:22:00;;;;;;;39.72;21.33;;;6.90;99.90;;;6.89;86.15;101946.44;5064530;28;21469;-83
2023/12/15 05:24:32;;;;;;;41.00;20.70;;;6.80;99.90;;;6.90;86.44;101951.59;5047092;28;20052;-83
2023/12/15 05:27:02;;;;;;;39.28;21.48;;;6.80;99.90;;;6.92;86.17;101952.25;5087157;28;20056;-83
2023/12/15 05:29:29;;;;;;;39.85;21.33;;;6.90;99.90;;;6.96;86.16;101945.69;5062147;28;20045;-83
2023/12/15 05:31:56;;;;;;;42.58;21.48;;;6.90;99.90;;;7.01;86.29;101957.66;5062116;28;20048;-83
2023/12/15 05:34:25;;;;;;;41.33;22.05;;;6.90;99.90;;;6.98;86.17;101953.50;5063550;28;20047;-83
2023/12/15 05:36:53;;;;;;;43.78;21.98;;;6.90;99.90;;;6.93;86.43;101955.78;5039264;28;20067;-83
2023/12/15 05:39:23;;;;;;;49.45;22.50;;;6.90;99.90;;;6.95;86.48;101957.28;5062391;28;20045;-84
2023/12/15 05:41:50;;;;;;;47.63;23.75;;;7.00;99.90;;;6.93;86.61;101953.13;5080680;28;20044;-84
2023/12/15 05:44:18;;;;;;;45.90;23.73;;;6.90;99.90;;;6.91;86.75;101950.59;5078777;28;20044;-84
2023/12/15 05:46:46;;;;;;;43.30;23.45;;;6.90;99.90;;;6.93;86.78;101958.44;5077635;28;20594;-85
2023/12/15 05:49:14;;;;;;;43.72;22.67;;;6.90;99.90;;;6.95;86.76;101964.41;5075109;28;20085;-85
2023/12/15 05:51:53;;;;;;;42.15;22.00;;;6.90;99.90;;;6.95;87.04;101981.16;5077049;28;20044;-83
2023/12/15 05:54:21;;;;;;;46.55;22.42;;;6.90;99.90;;;6.96;86.75;101984.63;5078330;28;20124;-84
2023/12/15 05:56:49;;;;;;;39.00;21.55;;;6.80;99.90;;;7.00;86.92;101983.34;5076044;28;20063;-83
2023/12/15 05:59:16;;;;;;;42.33;23.23;;;6.90;99.90;;;7.02;86.89;101991.97;5077730;28;20037;-84
2023/12/15 06:01:44;;;;;;;45.20;22.25;;;6.90;99.90;;;7.05;86.89;101989.03;5082808;28;20044;-84
2023/12/15 06:04:12;;;;;;;48.17;23.33;;;7.00;99.90;;;7.05;86.70;101988.19;5094650;28;21076;-85
2023/12/15 06:06:40;;;;;;;42.33;22.50;;;7.00;99.90;;;7.08;86.44;101993.22;5077139;28;20045;-84
2023/12/15 06:09:15;;;;;;;;;;;7.00;99.90;;;7.09;86.70;101990.41;5076890;28;20040;-83
2023/12/15 06:11:43;;;;;;;;;;;7.00;99.90;;;7.08;86.58;101993.22;5096144;28;20352;-83
2023/12/15 06:14:11;;;;;;;46.03;23.17;;;7.00;99.90;;;7.02;86.41;101991.97;5077128;28;20294;-83
2023/12/15 06:16:38;;;;;;;55.90;25.63;;;7.00;99.90;;;6.96;86.86;101998.72;5075932;28;20056;-83
2023/12/15 06:19:06;;;;;;;50.75;24.50;;;6.90;99.90;;;6.99;87.19;102002.91;5074513;28;20045;-83
2023/12/15 06:21:34;;;;;;;47.53;24.10;;;6.90;99.90;;;7.01;87.07;102002.75;5076200;28;20106;-83
2023/12/15 06:24:02;;;;;;;51.80;24.77;;;7.00;99.90;;;6.92;87.34;102002.66;5075604;28;20040;-83
2023/12/15 06:26:32;;;;;;;54.35;25.45;;;6.90;99.90;;;6.89;87.82;102002.97;5074485;28;20102;-83
2023/12/15 06:29:00;;;;;;;53.08;24.83;;;6.90;99.90;;;6.94;87.95;101999.88;5058520;28;20041;-83
2023/12/15 06:31:29;;;;;;;51.88;26.50;;;6.90;99.90;;;6.96;87.87;102017.28;5074435;28;20621;-83
2023/12/15 06:33:56;;;;;;;57.63;25.17;;;6.90;99.90;;;7.01;87.79;102022.16;5077830;28;20048;-84
2023/12/15 06:36:26;;;;;;;50.70;24.73;;;7.00;99.90;;;7.00;87.98;102028.44;5078050;28;20048;-82
2023/12/15 06:38:54;;;;;;;50.58;25.05;;;7.00;99.90;;;7.03;87.87;102025.50;5078249;28;20127;-82
2023/12/15 06:41:21;;;;;;;49.88;26.13;;;7.00;99.90;;;6.99;87.48;102032.09;5077569;28;20075;-82
2023/12/15 06:43:50;;;;;;;50.13;24.85;;;7.00;99.90;;;7.04;87.78;102042.25;5078221;28;20422;-82
2023/12/15 06:46:18;;;;;;;48.33;24.50;;;7.00;99.90;;;7.08;87.78;102047.09;5077920;28;20071;-82
2023/12/15 06:48:45;;;;;;;60.58;25.63;;;7.00;99.90;;;7.09;87.61;102043.47;5076238;28;20029;-82
2023/12/15 06:51:13;;;;;;;50.92;25.55;;;7.00;99.90;;;7.08;87.64;102047.09;5076774;28;20052;-82
2023/12/15 06:53:40;;;;;;;53.58;26.10;;;7.00;99.90;;;7.11;87.58;102051.25;5076280;28;20503;-82
2023/12/15 06:56:09;;;;;;;54.28;25.88;;;7.00;99.90;;;7.14;87.61;102046.50;5076313;28;20064;-82
2023/12/15 06:58:37;;;;;;;59.22;27.25;;;7.10;99.90;;;7.17;87.45;102053.31;5077208;28;20431;-82
2023/12/15 07:01:06;;;;;;;49.47;25.35;;;7.10;99.90;;;7.11;87.39;102051.25;5060180;28;20132;-83
2023/12/15 07:03:34;;;;;;;53.50;24.85;;;7.10;99.90;;;7.14;87.73;102054.47;5078022;28;20106;-82
2023/12/15 07:06:02;;;;;;;54.92;26.27;;;7.10;99.90;;;7.13;87.55;102058.09;5059031;28;20060;-83
2023/12/15 07:08:29;;;;;;;61.70;27.73;;;7.10;99.90;;;7.12;87.92;102060.88;5077638;28;20076;-82
2023/12/15 07:10:57;;;;;;;54.08;25.98;;;7.10;99.90;;;7.14;88.00;102056.28;5077367;28;20066;-82
2023/12/15 07:13:24;;;;;;;50.30;24.67;;;7.10;99.90;;;7.15;88.19;102066.75;5075693;28;20136;-84
2023/12/15 07:15:52;;;;;;;54.10;26.73;;;7.10;99.90;;;7.15;88.12;102077.34;5055629;28;20074;-84
2023/12/15 07:18:21;;;;;;;54.28;26.38;;;7.10;99.90;;;7.19;88.08;102078.72;5074884;28;20032;-84
2023/12/15 07:20:49;;;;;;;53.90;25.77;;;7.10;99.90;;;7.22;87.80;102075.78;5058400;28;20139;-82
2023/12/15 07:23:21;;;;;;;51.30;25.13;;;7.10;99.90;;;7.25;87.74;102084.41;5078032;28;20064;-85
2023/12/15 07:25:48;;;;;;;;;;;7.10;99.90;;;7.26;87.77;102078.94;5046364;28;20040;-83
2023/12/15 07:28:16;;;;;;;52.53;25.95;;;7.20;99.90;;;7.21;87.69;102076.75;5075488;28;19966;-83
2023/12/15 07:30:43;;;;;;;51.10;25.17;;;7.20;99.90;;;7.25;87.96;102092.38;5078123;28;20063;-83
2023/12/15 07:33:11;;;;;;;53.47;25.55;;;7.10;99.90;;;7.20;88.07;102095.47;5059457;28;20599;-83
2023/12/15 07:35:41;;;;;;;54.75;26.05;;;7.10;99.90;;;7.22;88.15;102097.00;5077110;28;20419;-83
2023/12/15 07:38:09;;;;;;;54.42;25.33;;;7.10;99.90;;;7.25;88.30;102100.34;5075634;28;20086;-83
2023/12/15 07:40:37;;;;;;;54.22;27.05;;;7.10;99.90;;;7.26;88.42;102102.00;5075777;28;20072;-83
2023/12/15 07:43:05;;;;;;;57.92;28.25;;;7.20;99.90;;;7.26;88.30;102110.78;5075820;28;20106;-83
2023/12/15 07:45:32;;;;;;;54.60;27.55;;;7.10;99.90;;;7.27;88.31;102107.19;5059056;28;20579;-83
2023/12/15 07:48:01;;;;;;;53.40;27.65;;;7.20;99.90;;;7.30;88.26;102111.34;5077551;28;20095;-83
2023/12/15 07:50:30;;;;;;;62.55;28.58;;;7.20;99.90;;;7.30;88.16;102119.31;5076464;28;20127;-83
2023/12/15 07:52:59;;;;;;;59.42;27.70;;;7.20;99.90;;;7.32;88.17;102126.16;5077539;28;20094;-83
2023/12/15 07:55:28;;;;;;;54.60;26.55;;;7.20;99.90;;;7.35;88.17;102133.78;5075645;28;20048;-83
2023/12/15 07:57:56;;;;;;;60.22;28.15;;;7.20;99.90;;;7.36;88.07;102131.97;5076057;28;20451;-83
2023/12/15 08:00:25;;;;;;;56.60;28.20;;;7.20;99.90;;;7.37;88.13;102126.53;5075352;28;20427;-83
2023/12/15 08:02:52;;;;;;;58.97;28.48;;;7.30;99.90;;;7.39;87.94;102132.50;5077762;28;20094;-83
2023/12/15 08:05:20;;;;;;;55.95;26.27;;;7.30;99.90;;;7.39;88.08;102134.34;5075482;28;20052;-83
2023/12/15 08:07:47;;;;;;;55.60;27.02;;;7.30;99.90;;;7.41;88.08;102135.84;5079785;28;20041;-83
2023/12/15 08:10:16;;;;;;;57.65;27.08;;;7.30;99.90;;;7.40;88.14;102131.53;5081525;28;20048;-83
2023/12/15 08:12:45;;;;;;;60.67;27.40;;;7.30;99.90;;;7.42;87.94;102128.75;5081868;28;20124;-83
2023/12/15 08:15:13;;;;;;;58.05;26.25;;;7.40;99.90;;;7.39;88.22;102137.00;5080351;28;20075;-83
2023/12/15 08:17:40;;;;;;;63.30;27.23;;;7.30;99.90;;;7.33;88.85;102150.88;5081356;28;20400;-83
2023/12/15 08:20:10;;;;;;;64.10;27.85;;;7.30;99.90;;;7.33;89.18;102150.88;5081171;28;20033;-83
2023/12/15 08:22:38;;;;;;;59.72;27.02;;;7.30;99.90;;;7.34;89.26;102150.72;5080986;28;20063;-83
2023/12/15 08:25:07;;;;;;;58.17;26.83;;;7.30;99.90;;;7.36;89.36;102159.34;5081378;28;20119;-83
2023/12/15 08:27:37;;;;;;;67.85;29.63;;;7.30;99.90;;;7.29;89.57;102160.09;5059870;28;20048;-83
2023/12/15 08:30:07;;;;;;;73.47;29.33;;;7.30;99.90;;;7.31;89.88;102169.56;5050515;28;20056;-83
2023/12/15 08:32:34;;;;;;;60.55;26.80;;;7.30;99.90;;;7.27;90.09;102164.69;5062334;28;20051;-83
2023/12/15 08:35:02;;;;;;;58.53;26.65;;;7.30;99.90;;;7.29;90.52;102168.91;5078805;28;20180;-83
2023/12/15 08:37:29;;;;;;;64.30;29.00;;;7.30;99.90;;;7.35;90.29;102183.38;5080596;28;20060;-83
2023/12/15 08:39:57;;;;;;;70.10;28.05;;;7.30;99.90;;;7.39;90.20;102177.63;5063540;28;20033;-83
2023/12/15 08:42:24;;;;;;;68.97;28.25;;;7.30;99.90;;;7.39;90.27;102176.81;5081432;28;20048;-83
2023/12/15 08:44:53;;;;;;;96.80;31.65;;;7.40;99.90;;;7.39;90.58;102180.28;5062879;28;20040;-83
2023/12/15 08:47:26;;;;;;;64.20;26.65;;;7.40;99.90;;;7.38;90.74;102189.25;5078631;28;20098;-83
2023/12/15 08:49:54;;;;;;;74.90;29.10;;;7.40;99.90;;;7.37;90.50;102203.50;5079164;28;20496;-83
2023/12/15 08:52:21;;;;;;;70.03;27.38;;;7.40;99.90;;;7.36;90.96;102206.28;5079324;28;20047;-84
2023/12/15 08:54:49;;;;;;;68.93;27.80;;;7.40;99.90;;;7.41;91.15;102199.53;5079734;28;20482;-83
2023/12/15 08:57:17;;;;;;;71.47;29.45;;;7.40;99.90;;;7.46;91.17;102207.06;5079159;28;20423;-84
2023/12/15 08:59:44;;;;;;;61.30;26.63;;;7.50;99.90;;;7.51;91.15;102214.59;5062201;28;20419;-83
2023/12/15 09:02:13;;;;;;;67.47;27.13;;;7.50;99.90;;;7.53;90.99;102218.78;5061286;28;20040;-83
2023/12/15 09:04:41;;;;;;;63.38;28.80;;;7.50;99.90;;;7.57;90.76;102224.66;5059862;28;20052;-83
2023/12/15 09:07:09;;;;;;;72.53;29.30;;;7.60;99.90;;;7.58;90.49;102232.44;5079483;28;20044;-84
2023/12/15 09:09:38;;;;;;;76.13;29.40;;;7.60;99.90;;;7.62;90.64;102235.66;5080041;28;20037;-83
2023/12/15 09:12:07;;;;;;;73.38;28.92;;;7.60;99.90;;;7.63;90.66;102240.81;5079030;28;20067;-83
2023/12/15 09:14:34;;;;;;;78.45;30.27;;;7.60;99.90;;;7.64;90.51;102236.31;5078405;28;20044;-83
2023/12/15 09:17:02;;;;;;;77.75;29.85;;;7.60;99.90;;;7.65;91.01;102248.63;5061223;28;20059;-83
2023/12/15 09:19:34;;;;;;;74.00;29.73;;;7.60;99.90;;;7.66;90.85;102256.44;5028798;28;20048;-84
2023/12/15 09:22:01;;;;;;;71.95;29.08;;;7.60;99.90;;;7.69;90.93;102256.13;5078881;28;20049;-83
2023/12/15 09:24:30;;;;;;;76.05;30.67;;;7.70;99.90;;;7.72;90.92;102255.84;5079074;28;20040;-83
2023/12/15 09:26:57;;;;;;;82.97;32.33;;;7.70;99.90;;;7.70;91.22;102260.47;5080667;28;20082;-83
2023/12/15 09:29:25;;;;;;;85.07;32.75;;;7.70;99.90;;;7.70;91.12;102259.63;5080344;28;20068;-84
2023/12/15 09:31:53;;;;;;;72.85;30.35;;;7.70;99.90;;;7.70;91.30;102268.44;5078858;28;20052;-84
2023/12/15 09:34:21;;;;;;;82.15;31.92;;;7.70;99.90;;;7.70;91.26;102272.91;5079151;28;20415;-84
2023/12/15 09:36:50;;;;;;;107.43;32.78;;;7.70;99.90;;;7.71;91.67;102282.53;5081151;28;20122;-83
2023/12/15 09:39:18;;;;;;;100.93;34.08;;;7.70;99.90;;;7.71;91.96;102285.19;5079372;28;20137;-83
2023/12/15 09:41:54;;;;;;;79.90;30.75;;;7.70;99.90;;;7.73;92.23;102289.38;5044940;28;20059;-83
2023/12/15 09:44:22;;;;;;;93.95;31.67;;;7.70;99.90;;;7.74;92.35;102300.84;5080567;28;20047;-83
2023/12/15 09:46:49;;;;;;;113.85;33.70;;;7.80;99.90;;;7.76;92.55;102304.22;5062225;28;20045;-83
2023/12/15 09:49:20;;;;;;;91.53;30.98;;;7.80;99.90;;;7.69;92.96;102314.56;5080429;28;20036;-83
2023/12/15 09:51:50;;;;;;;98.72;31.17;;;7.80;99.90;;;7.71;93.02;102317.06;5080436;28;20045;-83
2023/12/15 09:54:21;;;;;;;94.40;31.58;;;7.80;99.90;;;7.73;93.47;102315.94;5078716;28;20098;-83
2023/12/15 09:56:48;;;;;;;114.70;33.30;;;7.80;99.90;;;7.76;93.16;102320.13;5062070;28;20067;-83
2023/12/15 09:59:16;;;;;;;103.68;33.22;;;7.80;99.90;;;7.75;93.19;102313.97;5078064;28;20569;-83
2023/12/15 10:01:43;;;;;;;111.63;33.22;;;7.80;99.90;;;7.79;93.71;102322.47;5044153;28;20381;-83
2023/12/15 10:04:11;;;;;;;99.70;32.60;;;7.90;99.90;;;7.81;93.98;102319.66;5080051;28;20076;-83
2023/12/15 10:06:39;;;;;;;96.78;32.17;;;7.90;99.90;;;7.83;93.90;102326.53;5062055;28;20423;-84
2023/12/15 10:09:13;;;;;;;95.35;31.98;;;7.90;99.90;;;7.87;93.83;102325.25;5062003;28;20044;-84
2023/12/15 10:11:44;;;;;;;90.55;30.65;;;7.90;99.90;;;7.87;93.77;102335.88;5080018;28;20045;-83
2023/12/15 10:14:14;;;;;;;100.25;32.45;;;7.90;99.90;;;7.90;93.90;102340.03;5078235;28;20051;-84
2023/12/15 10:16:42;;;;;;;94.65;32.60;;;8.00;99.90;;;7.96;93.88;102350.09;5079686;28;20116;-84